createdAt,value
2022-12-23T00:06:45.865Z,98524.55
2022-12-23T00:16:20.106Z,98511.83
2022-12-23T00:25:53.247Z,98513.23
2022-12-23T00:35:28.467Z,98509.08
2022-12-23T00:45:00.895Z,98516.36
2022-12-23T00:54:34.752Z,98517.73
2022-12-23T01:04:10.073Z,98522.70
2022-12-23T01:13:43.832Z,98524.50
2022-12-23T01:23:17.309Z,98549.30
2022-12-23T01:32:50.962Z,98576.81
2022-12-23T01:42:23.121Z,98591.77
2022-12-23T01:51:56.977Z,98598.47
2022-12-23T02:01:32.648Z,98611.01
2022-12-23T02:11:04.778Z,98639.24
2022-12-23T02:20:38.355Z,98663.19
2022-12-23T02:30:12.484Z,98658.61
2022-12-23T02:39:45.948Z,98669.78
2022-12-23T02:49:19.642Z,98664.26
2022-12-23T02:58:53.189Z,98672.52
2022-12-23T03:08:28.638Z,98670.98
2022-12-23T03:18:00.373Z,98692.50
2022-12-23T03:27:35.465Z,98695.81
2022-12-23T03:37:08.668Z,98701.42
2022-12-23T03:46:40.638Z,98720.91
2022-12-23T03:56:14.426Z,98730.36
2022-12-23T04:05:47.987Z,98743.23
2022-12-23T04:15:23.764Z,98753.05
2022-12-23T04:24:57.276Z,98726.08
2022-12-23T04:34:30.725Z,98759.97
2022-12-23T04:44:04.426Z,98735.48
2022-12-23T04:53:37.699Z,98748.54
2022-12-23T05:03:09.358Z,98755.55
2022-12-23T05:12:43.396Z,98751.84
2022-12-23T05:22:19.471Z,98762.06
2022-12-23T05:31:54.186Z,98767.14
2022-12-23T05:41:27.688Z,98764.09
2022-12-23T05:51:01.493Z,98775.02
2022-12-23T06:00:33.440Z,98795.19
2022-12-23T06:10:09.215Z,98779.56
2022-12-23T06:19:41.370Z,98777.72
2022-12-23T06:29:16.980Z,98796.60
2022-12-23T06:38:49.233Z,98804.47
2022-12-23T06:48:23.752Z,98810.13
2022-12-23T06:57:57.299Z,98800.33
2022-12-23T07:07:31.500Z,98788.81
2022-12-23T07:17:07.122Z,98785.53
2022-12-23T07:26:39.189Z,98797.80
2022-12-23T07:36:13.272Z,98815.06
2022-12-23T07:45:47.244Z,98827.09
2022-12-23T07:55:22.329Z,98838.04
2022-12-23T08:04:54.164Z,98828.25
2022-12-23T08:14:28.455Z,98811.97
2022-12-23T08:24:02.830Z,98821.09
2022-12-23T08:33:37.349Z,98832.23
2022-12-23T08:43:11.729Z,98840.09
2022-12-23T08:52:46.031Z,98840.64
2022-12-23T09:02:21.774Z,98829.63
2022-12-23T09:11:54.314Z,98830.67
2022-12-23T09:21:28.568Z,98833.70
2022-12-23T09:31:02.948Z,98826.94
2022-12-23T09:40:36.662Z,98826.66
2022-12-23T09:50:12.485Z,98822.22
2022-12-23T09:59:46.402Z,98822.57
2022-12-23T10:09:18.392Z,98824.23
2022-12-23T10:18:53.187Z,98811.25
2022-12-23T10:28:29.641Z,98805.59
2022-12-23T10:37:59.781Z,98776.41
2022-12-23T10:47:34.092Z,98750.95
2022-12-23T10:57:09.016Z,98709.61
2022-12-23T11:06:39.482Z,98706.62
2022-12-23T11:16:12.110Z,98675.02
2022-12-23T11:25:45.898Z,98672.20
2022-12-23T11:35:21.558Z,98651.20
2022-12-23T11:44:55.323Z,98634.80
2022-12-23T11:54:27.889Z,98609.60
2022-12-23T12:04:02.745Z,98589.67
2022-12-23T12:13:34.899Z,98586.27
2022-12-23T12:14:37.338Z,98584.96
2022-12-23T12:15:39.838Z,98577.61
2022-12-23T12:25:12.655Z,98559.70
2022-12-23T12:26:16.139Z,98556.45
2022-12-23T12:35:52.012Z,98529.91
2022-12-23T12:36:50.796Z,98524.39
2022-12-23T12:37:53.221Z,98524.02
2022-12-23T12:38:55.640Z,98523.65
2022-12-23T12:39:58.081Z,98523.79
2022-12-23T12:41:02.133Z,98518.04
2022-12-23T12:42:05.903Z,98517.94
2022-12-23T12:43:08.475Z,98514.78
2022-12-23T12:44:10.741Z,98515.54
2022-12-23T12:45:14.847Z,98515.59
2022-12-23T12:46:17.251Z,98516.11
2022-12-23T12:47:45.095Z,98510.34
2022-12-23T12:48:21.951Z,98508.89
2022-12-23T12:49:24.396Z,98504.34
2022-12-23T12:50:28.437Z,98504.61
2022-12-23T12:51:30.760Z,98503.95
2022-12-23T12:52:33.100Z,98499.20
2022-12-23T12:53:35.574Z,98500.31
2022-12-23T12:54:37.951Z,98490.08
2022-12-23T12:55:40.364Z,98494.88
2022-12-23T13:05:14.231Z,98475.79
2022-12-23T13:06:16.521Z,98481.91
2022-12-23T13:07:18.950Z,98477.93
2022-12-23T13:08:23.005Z,98473.93
2022-12-23T13:17:58.867Z,98452.64
2022-12-23T13:18:57.888Z,98447.98
2022-12-23T13:20:00.388Z,98441.22
2022-12-23T13:21:04.494Z,98442.76
2022-12-23T13:22:08.450Z,98434.27
2022-12-23T13:23:41.425Z,98428.77
2022-12-23T13:24:16.241Z,98430.97
2022-12-23T13:25:18.568Z,98428.94
2022-12-23T13:26:20.997Z,98429.14
2022-12-23T13:27:23.485Z,98432.83
2022-12-23T13:36:57.304Z,98431.97
2022-12-23T13:37:59.529Z,98434.38
2022-12-23T13:39:02.005Z,98434.55
2022-12-23T13:40:06.093Z,98429.56
2022-12-23T13:49:38.659Z,98417.83
2022-12-23T13:50:41.025Z,98413.44
2022-12-23T13:51:43.393Z,98411.83
2022-12-23T13:52:45.793Z,98409.61
2022-12-23T14:02:18.828Z,98407.33
2022-12-23T14:03:22.946Z,98400.92
2022-12-23T14:04:26.102Z,98398.19
2022-12-23T14:05:28.493Z,98397.88
2022-12-23T14:06:30.891Z,98392.20
2022-12-23T14:07:33.345Z,98389.89
2022-12-23T14:08:37.391Z,98386.57
2022-12-23T14:09:41.335Z,98389.30
2022-12-23T14:19:13.648Z,98368.90
2022-12-23T14:20:15.978Z,98370.67
2022-12-23T14:21:18.391Z,98374.92
2022-12-23T14:30:51.133Z,98362.09
2022-12-23T14:31:53.498Z,98362.04
2022-12-23T14:41:27.133Z,98360.07
2022-12-23T14:51:01.537Z,98368.28
2022-12-23T14:52:04.035Z,98361.48
2022-12-23T15:01:37.929Z,98335.83
2022-12-23T15:02:40.372Z,98338.38
2022-12-23T15:03:44.387Z,98340.58
2022-12-23T15:04:46.663Z,98345.48
2022-12-23T15:14:20.950Z,98349.91
2022-12-23T15:23:53.169Z,98365.69
2022-12-23T15:34:01.258Z,98362.42
2022-12-23T15:43:02.998Z,98364.25
2022-12-23T15:52:37.116Z,98375.56
2022-12-23T16:02:32.481Z,98369.22
2022-12-23T16:11:42.917Z,98358.84
2022-12-23T16:21:16.678Z,98378.31
2022-12-23T16:30:51.886Z,98380.34
2022-12-23T16:40:23.947Z,98388.43
2022-12-23T16:49:58.684Z,98408.57
2022-12-23T16:59:33.067Z,98423.09
2022-12-23T17:09:07.151Z,98420.26
2022-12-23T17:18:42.293Z,98431.83
2022-12-23T17:28:18.846Z,98423.92
2022-12-23T17:37:47.622Z,98450.31
2022-12-23T17:47:23.084Z,98449.28
2022-12-23T17:56:56.401Z,98472.37
2022-12-23T17:57:58.702Z,98468.26
2022-12-23T18:07:33.496Z,98457.69
2022-12-23T18:17:05.584Z,98487.63
2022-12-23T18:26:41.450Z,98493.52
2022-12-23T18:36:13.933Z,98517.62
2022-12-23T18:45:52.678Z,98523.95
2022-12-23T18:55:24.143Z,98524.58
2022-12-23T19:04:58.603Z,98542.48
2022-12-23T19:14:30.378Z,98543.86
2022-12-23T19:24:05.272Z,98565.67
2022-12-23T19:33:37.081Z,98599.84
2022-12-23T19:43:10.625Z,98598.59
2022-12-23T19:52:44.689Z,98616.41
2022-12-23T20:02:19.224Z,98587.71
2022-12-23T20:11:52.693Z,98642.14
2022-12-23T20:21:25.970Z,98658.16
2022-12-23T20:30:59.531Z,98684.51
2022-12-23T20:40:34.754Z,98683.44
2022-12-23T20:50:07.521Z,98693.45
2022-12-23T20:59:38.023Z,98699.09
2022-12-23T21:09:11.696Z,98712.77
2022-12-23T21:18:41.146Z,98737.19
2022-12-23T21:28:14.805Z,98729.06
2022-12-23T21:37:46.645Z,98747.80
2022-12-23T21:47:20.484Z,98753.03
2022-12-23T21:56:56.022Z,98752.23
2022-12-23T22:06:27.081Z,98770.45
2022-12-23T22:16:01.185Z,98756.86
2022-12-23T22:25:32.163Z,98768.99
2022-12-23T22:35:06.167Z,98768.56
2022-12-23T22:44:37.265Z,98786.17
2022-12-23T22:54:12.865Z,98809.75
2022-12-23T23:03:45.166Z,98827.30
2022-12-23T23:13:18.950Z,98838.91
2022-12-23T23:22:52.537Z,98867.14
2022-12-23T23:32:26.088Z,98876.95
2022-12-23T23:41:59.702Z,98881.35
2022-12-23T23:51:34.019Z,98884.11
